createdAt,value
2023-01-22T00:00:30.157Z,9.711727
2023-01-22T00:01:30.155Z,9.711899
2023-01-22T00:02:30.169Z,9.711914
2023-01-22T00:03:30.179Z,9.711935
2023-01-22T00:04:30.131Z,9.711930
2023-01-22T00:05:30.965Z,9.711868
2023-01-22T00:06:30.120Z,9.711834
2023-01-22T00:07:30.125Z,9.711771
2023-01-22T00:08:30.099Z,9.711761
2023-01-22T00:09:30.089Z,9.712108
2023-01-22T00:10:30.077Z,9.712109
2023-01-22T00:11:30.075Z,9.712129
2023-01-22T00:12:33.930Z,9.712042
2023-01-22T00:13:30.058Z,9.712235
2023-01-22T00:14:30.118Z,9.712196
2023-01-22T00:15:30.046Z,9.712047
2023-01-22T00:16:30.051Z,9.711800
2023-01-22T00:17:30.885Z,9.711901
2023-01-22T00:18:30.033Z,9.711718
2023-01-22T00:19:30.029Z,9.711916
2023-01-22T00:20:30.379Z,9.711993
2023-01-22T00:21:30.086Z,9.712177
2023-01-22T00:22:29.979Z,9.712331
2023-01-22T00:23:29.994Z,9.712512
2023-01-22T00:24:29.974Z,9.712198
2023-01-22T00:30:21.136Z,9.713415
2023-01-22T00:31:21.161Z,9.713212
2023-01-22T00:32:21.821Z,9.713243
2023-01-22T00:33:22.113Z,9.711580
2023-01-22T00:34:21.107Z,9.711575
2023-01-22T00:35:21.083Z,9.711525
2023-01-22T00:36:21.076Z,9.711560
2023-01-22T00:37:21.083Z,9.711559
2023-01-22T00:38:21.067Z,9.711492
2023-01-22T00:39:21.108Z,9.711593
2023-01-22T00:40:21.043Z,9.711517
2023-01-22T00:41:21.034Z,9.711471
2023-01-22T00:42:21.027Z,9.711570
2023-01-22T00:43:21.057Z,9.711576
2023-01-22T00:44:21.020Z,9.711616
2023-01-22T00:45:21.045Z,9.711553
2023-01-22T00:46:21.028Z,9.711544
2023-01-22T00:47:21.001Z,9.711530
2023-01-22T00:48:20.985Z,9.711611
2023-01-22T00:49:20.992Z,9.711594
2023-01-22T00:50:20.967Z,9.711562
2023-01-22T00:51:21.036Z,9.711602
2023-01-22T00:52:21.038Z,9.711537
2023-01-22T00:53:20.945Z,9.711564
2023-01-22T00:54:20.955Z,9.711566
2023-01-22T00:55:20.931Z,9.711653
2023-01-22T00:56:20.924Z,9.711648
2023-01-22T00:57:20.919Z,9.711636
2023-01-22T00:58:20.895Z,9.711618
2023-01-22T00:59:20.903Z,9.711632
2023-01-22T01:00:20.888Z,9.711583
2023-01-22T01:01:20.872Z,9.711505
2023-01-22T01:02:21.754Z,9.711559
2023-01-22T01:03:20.859Z,9.711520
2023-01-22T01:04:20.852Z,9.711535
2023-01-22T01:05:20.853Z,9.711532
2023-01-22T01:06:20.868Z,9.711554
2023-01-22T01:07:21.709Z,9.711539
2023-01-22T01:08:20.824Z,9.711547
2023-01-22T01:09:20.820Z,9.711479
2023-01-22T01:10:21.006Z,9.711605
2023-01-22T01:11:20.802Z,9.711533
2023-01-22T01:12:20.787Z,9.711487
2023-01-22T01:13:20.879Z,9.711490
2023-01-22T01:14:20.785Z,9.711544
2023-01-22T01:15:20.764Z,9.711533
2023-01-22T01:16:20.800Z,9.711514
2023-01-22T01:17:20.752Z,9.711574
2023-01-22T01:18:20.745Z,9.711620
2023-01-22T01:19:20.747Z,9.711525
2023-01-22T01:20:20.908Z,9.711553
2023-01-22T01:21:20.751Z,9.711577
2023-01-22T01:22:20.712Z,9.711599
2023-01-22T01:23:20.713Z,9.711607
2023-01-22T01:24:20.710Z,9.711588
2023-01-22T01:25:20.691Z,9.711556
2023-01-22T01:26:20.676Z,9.711503
2023-01-22T01:27:20.675Z,9.711496
2023-01-22T01:28:20.686Z,9.711535
2023-01-22T01:29:20.761Z,9.711557
2023-01-22T01:30:20.758Z,9.711613
2023-01-22T01:31:20.856Z,9.711720
2023-01-22T01:32:20.631Z,9.711706
2023-01-22T01:33:20.628Z,9.711532
2023-01-22T01:34:20.626Z,9.711588
2023-01-22T01:35:22.692Z,9.711813
2023-01-22T01:36:35.325Z,9.711793
2023-01-22T01:37:30.119Z,9.711625
2023-01-22T01:38:22.158Z,9.711669
2023-01-22T01:39:20.596Z,9.711636
2023-01-22T01:40:20.578Z,9.711636
2023-01-22T01:41:20.563Z,9.711631
2023-01-22T01:42:20.552Z,9.711721
2023-01-22T01:43:21.557Z,9.711811
2023-01-22T01:44:20.553Z,9.711775
2023-01-22T01:45:20.643Z,9.711700
2023-01-22T01:46:20.544Z,9.711778
2023-01-22T01:47:20.516Z,9.712096
2023-01-22T01:48:20.512Z,9.712259
2023-01-22T01:49:20.499Z,9.712471
2023-01-22T01:50:20.499Z,9.712104
2023-01-22T01:51:20.540Z,9.712021
2023-01-22T01:52:20.492Z,9.711930
2023-01-22T01:53:20.470Z,9.712010
2023-01-22T01:54:20.466Z,9.711637
2023-01-22T01:55:20.463Z,9.712056
2023-01-22T01:56:20.442Z,9.711739
2023-01-22T01:57:20.443Z,9.711971
2023-01-22T01:58:20.433Z,9.712097
2023-01-22T01:59:20.417Z,9.711888
2023-01-22T02:00:20.423Z,9.711867
2023-01-22T02:07:28.330Z,9.711053
2023-01-22T02:08:28.301Z,9.711162
2023-01-22T02:09:29.310Z,9.710995
2023-01-22T02:10:28.287Z,9.711066
2023-01-22T02:11:28.301Z,9.711090
2023-01-22T02:12:28.264Z,9.711094
2023-01-22T02:13:28.270Z,9.711119
2023-01-22T02:14:28.263Z,9.711166
2023-01-22T02:15:28.245Z,9.711150
2023-01-22T02:16:28.351Z,9.711079
2023-01-22T02:17:28.236Z,9.711065
2023-01-22T02:18:28.336Z,9.711305
2023-01-22T02:19:29.185Z,9.711297
2023-01-22T02:20:28.226Z,9.711499
2023-01-22T02:21:28.221Z,9.711408
2023-01-22T02:22:28.227Z,9.711421
2023-01-22T02:23:47.177Z,9.711298
2023-01-22T02:24:30.685Z,9.711329
2023-01-22T02:25:30.095Z,9.711402
2023-01-22T02:26:31.109Z,9.711352
2023-01-22T02:27:28.163Z,9.711322
2023-01-22T02:28:28.170Z,9.711266
2023-01-22T02:29:28.146Z,9.711290
2023-01-22T02:30:28.159Z,9.711303
2023-01-22T02:31:28.147Z,9.711365
2023-01-22T02:32:29.125Z,9.711403
2023-01-22T02:33:29.111Z,9.711289
2023-01-22T02:34:29.207Z,9.711181
2023-01-22T02:35:28.136Z,9.711119
2023-01-22T02:36:28.100Z,9.711014
2023-01-22T02:37:28.076Z,9.711128
2023-01-22T02:38:28.068Z,9.710818
2023-01-22T02:39:28.077Z,9.710932
2023-01-22T02:40:28.058Z,9.711340
2023-01-22T02:41:28.685Z,9.711727
2023-01-22T02:42:28.076Z,9.711523
2023-01-22T02:43:28.030Z,9.711396
2023-01-22T02:44:28.053Z,9.711112
2023-01-22T02:45:28.024Z,9.711264
2023-01-22T02:46:29.010Z,9.711102
2023-01-22T02:47:28.011Z,9.711451
2023-01-22T02:48:27.990Z,9.711504
2023-01-22T02:49:27.994Z,9.711691
2023-01-22T02:50:28.702Z,9.711378
2023-01-22T02:51:27.993Z,9.711132
2023-01-22T02:52:29.603Z,9.710675
2023-01-22T02:53:27.950Z,9.710699
2023-01-22T02:54:28.688Z,9.710517
2023-01-22T02:55:27.946Z,9.710423
2023-01-22T02:56:27.928Z,9.710385
2023-01-22T02:57:27.930Z,9.711028
2023-01-22T02:58:27.925Z,9.711473
2023-01-22T02:59:27.908Z,9.710545
2023-01-22T03:00:27.906Z,9.709798
2023-01-22T03:01:27.903Z,9.711217
2023-01-22T03:02:28.970Z,9.711539
2023-01-22T03:03:27.866Z,9.711355
2023-01-22T03:04:29.694Z,9.710849
2023-01-22T03:05:28.851Z,9.710663
2023-01-22T03:06:27.965Z,9.711361
2023-01-22T03:07:27.843Z,9.711276
2023-01-22T03:08:27.835Z,9.711550
2023-01-22T03:09:27.828Z,9.711126
2023-01-22T03:10:27.815Z,9.710779
2023-01-22T03:11:27.809Z,9.711550
2023-01-22T03:12:27.804Z,9.711509
2023-01-22T03:13:27.790Z,9.711488
2023-01-22T03:14:28.790Z,9.711414
2023-01-22T03:15:28.783Z,9.711448
2023-01-22T03:16:27.830Z,9.711671
2023-01-22T03:17:27.769Z,9.711562
2023-01-22T03:18:27.755Z,9.711649
2023-01-22T03:19:27.744Z,9.711523
2023-01-22T03:20:27.742Z,9.711380
2023-01-22T03:21:27.736Z,9.711564
2023-01-22T03:22:28.798Z,9.711494
2023-01-22T03:23:27.721Z,9.711480
2023-01-22T03:24:29.608Z,9.711691
2023-01-22T03:25:27.713Z,9.711647
2023-01-22T03:26:28.695Z,9.711536
2023-01-22T03:27:27.703Z,9.711604
2023-01-22T03:28:27.679Z,9.711643
2023-01-22T03:29:27.682Z,9.711681
2023-01-22T03:30:27.675Z,9.711602
2023-01-22T03:31:27.782Z,9.711618
2023-01-22T03:32:27.648Z,9.711459
2023-01-22T03:33:27.645Z,9.711581
2023-01-22T03:34:27.630Z,9.711752
2023-01-22T03:35:27.621Z,9.711772
2023-01-22T03:36:27.619Z,9.711742
2023-01-22T03:37:27.601Z,9.711467
2023-01-22T03:38:27.819Z,9.711639
2023-01-22T03:39:28.120Z,9.711651
2023-01-22T03:40:28.196Z,9.711540
2023-01-22T03:41:28.556Z,9.711535
2023-01-22T03:42:27.570Z,9.711601
2023-01-22T03:43:27.563Z,9.711435
2023-01-22T03:44:28.193Z,9.711543
2023-01-22T03:45:27.544Z,9.711589
2023-01-22T03:46:27.570Z,9.711558
2023-01-22T03:47:27.546Z,9.711662
2023-01-22T03:48:28.108Z,9.711624
2023-01-22T03:49:27.543Z,9.711645
2023-01-22T03:50:27.503Z,9.711613
2023-01-22T03:51:27.501Z,9.711698
2023-01-22T03:52:27.486Z,9.711758
2023-01-22T03:53:27.501Z,9.711759
2023-01-22T03:54:27.577Z,9.711667
2023-01-22T03:55:27.465Z,9.711643
2023-01-22T03:56:27.476Z,9.711567
2023-01-22T03:57:27.468Z,9.711485
2023-01-22T03:58:28.117Z,9.711845
2023-01-22T03:59:27.444Z,9.711847
2023-01-22T04:00:27.430Z,9.711681
2023-01-22T04:01:27.464Z,9.711720
2023-01-22T04:02:27.501Z,9.711641
2023-01-22T04:03:27.470Z,9.711570
2023-01-22T04:04:27.423Z,9.711735
2023-01-22T04:05:27.391Z,9.712037
2023-01-22T04:06:28.128Z,9.711851
2023-01-22T04:07:27.387Z,9.711841
2023-01-22T04:08:27.374Z,9.711860
2023-01-22T04:09:27.367Z,9.711989
2023-01-22T04:10:27.459Z,9.712201
2023-01-22T04:11:27.361Z,9.711913
2023-01-22T04:12:28.335Z,9.712001
2023-01-22T04:13:27.346Z,9.711974
2023-01-22T04:14:27.327Z,9.711808
2023-01-22T04:15:27.316Z,9.711908
2023-01-22T04:16:27.315Z,9.711971
2023-01-22T04:17:27.330Z,9.711790
2023-01-22T04:18:27.291Z,9.711735
2023-01-22T04:19:27.304Z,9.711765
2023-01-22T04:20:27.285Z,9.711765
2023-01-22T04:21:27.273Z,9.711812
2023-01-22T04:22:27.311Z,9.711739
2023-01-22T04:23:27.261Z,9.712070
2023-01-22T04:24:28.248Z,9.712152
2023-01-22T04:25:27.251Z,9.711906
2023-01-22T04:26:27.667Z,9.711946
2023-01-22T04:27:28.227Z,9.712016
2023-01-22T04:28:27.228Z,9.711871
2023-01-22T04:29:27.211Z,9.712020
2023-01-22T04:30:27.270Z,9.712155
2023-01-22T04:31:27.328Z,9.712150
2023-01-22T04:32:27.186Z,9.712042
2023-01-22T04:33:27.180Z,9.711926
2023-01-22T04:34:27.174Z,9.711880
2023-01-22T04:35:27.167Z,9.711799
2023-01-22T04:36:28.980Z,9.711796
2023-01-22T04:37:28.148Z,9.711753
2023-01-22T04:38:27.145Z,9.711781
2023-01-22T04:39:27.132Z,9.711734
2023-01-22T04:40:27.143Z,9.711701
2023-01-22T04:41:27.116Z,9.711852
2023-01-22T04:42:27.262Z,9.711836
2023-01-22T04:43:27.702Z,9.711820
2023-01-22T04:44:27.099Z,9.711784
2023-01-22T04:45:27.085Z,9.711694
2023-01-22T04:46:27.110Z,9.711726
2023-01-22T04:47:27.076Z,9.711710
2023-01-22T04:48:27.112Z,9.711771
2023-01-22T04:49:27.066Z,9.711803
2023-01-22T04:50:27.059Z,9.711777
2023-01-22T04:51:27.122Z,9.711745
2023-01-22T04:52:27.620Z,9.711751
2023-01-22T04:53:27.024Z,9.711730
2023-01-22T04:54:27.030Z,9.711728
2023-01-22T04:55:27.003Z,9.711718
2023-01-22T04:56:26.999Z,9.711725
2023-01-22T04:57:27.001Z,9.711704
2023-01-22T04:58:27.100Z,9.711648
2023-01-22T04:59:26.987Z,9.711688
2023-01-22T05:00:26.982Z,9.711663
2023-01-22T05:01:26.992Z,9.711641
2023-01-22T05:02:27.689Z,9.711658
2023-01-22T05:03:26.956Z,9.711699
2023-01-22T05:04:26.966Z,9.711682
2023-01-22T05:05:26.938Z,9.711687
2023-01-22T05:06:26.924Z,9.711680
2023-01-22T05:07:27.698Z,9.711700
2023-01-22T05:08:26.913Z,9.711681
2023-01-22T05:09:26.902Z,9.711661
2023-01-22T05:10:26.927Z,9.711610
2023-01-22T05:11:26.893Z,9.711683
2023-01-22T05:12:26.902Z,9.711595
2023-01-22T05:13:26.870Z,9.711665
2023-01-22T05:14:26.972Z,9.711673
2023-01-22T05:15:26.892Z,9.711677
2023-01-22T05:16:26.845Z,9.711643
2023-01-22T05:17:26.844Z,9.711680
2023-01-22T05:18:26.873Z,9.711674
2023-01-22T05:19:26.822Z,9.711759
2023-01-22T05:20:26.825Z,9.711844
2023-01-22T05:21:26.799Z,9.711926
2023-01-22T05:22:27.713Z,9.711832
2023-01-22T05:23:26.817Z,9.711803
2023-01-22T05:24:26.804Z,9.711908
2023-01-22T05:25:26.774Z,9.711811
2023-01-22T05:26:26.772Z,9.711678
2023-01-22T05:27:26.782Z,9.711682
2023-01-22T05:28:26.763Z,9.711637
2023-01-22T05:29:26.762Z,9.711651
2023-01-22T05:30:26.939Z,9.711915
2023-01-22T05:31:27.689Z,9.712379
2023-01-22T05:32:26.773Z,9.712407
2023-01-22T05:33:26.722Z,9.712343
2023-01-22T05:34:26.713Z,9.712200
2023-01-22T05:35:26.711Z,9.711934
2023-01-22T05:36:26.709Z,9.711756
2023-01-22T05:37:26.728Z,9.711667
2023-01-22T05:38:26.679Z,9.711702
2023-01-22T05:39:26.676Z,9.711536
2023-01-22T05:40:26.667Z,9.712357
2023-01-22T05:41:26.693Z,9.712278
2023-01-22T05:42:26.662Z,9.712314
2023-01-22T05:43:26.644Z,9.711683
2023-01-22T05:44:26.646Z,9.711622
2023-01-22T05:45:26.634Z,9.711626
2023-01-22T05:46:26.812Z,9.711656
2023-01-22T05:47:26.622Z,9.711697
2023-01-22T05:48:26.636Z,9.711617
2023-01-22T05:49:26.628Z,9.711604
2023-01-22T05:50:26.589Z,9.711666
2023-01-22T05:51:26.615Z,9.711678
2023-01-22T05:52:26.592Z,9.711672
2023-01-22T05:53:26.566Z,9.711675
2023-01-22T05:54:26.597Z,9.711711
2023-01-22T05:55:26.549Z,9.711672
2023-01-22T05:56:26.542Z,9.711692
2023-01-22T05:57:26.535Z,9.711683
2023-01-22T05:58:26.539Z,9.711673
2023-01-22T05:59:26.548Z,9.711676
2023-01-22T06:00:26.538Z,9.711690
2023-01-22T06:01:26.510Z,9.711711
2023-01-22T06:02:26.632Z,9.711674
2023-01-22T06:03:26.546Z,9.711704
2023-01-22T06:04:26.522Z,9.711701
2023-01-22T06:05:26.547Z,9.711646
2023-01-22T06:06:26.467Z,9.711644
2023-01-22T06:07:26.468Z,9.711611
2023-01-22T06:08:26.470Z,9.711647
2023-01-22T06:09:26.464Z,9.711613
2023-01-22T06:10:26.451Z,9.711655
2023-01-22T06:11:26.428Z,9.711657
2023-01-22T06:12:26.446Z,9.711626
2023-01-22T06:13:26.449Z,9.711604
2023-01-22T06:14:26.412Z,9.711595
2023-01-22T06:15:26.422Z,9.711631
2023-01-22T06:16:26.391Z,9.711651
2023-01-22T06:17:27.388Z,9.711615
2023-01-22T06:18:26.517Z,9.711657
2023-01-22T06:19:26.374Z,9.711648
2023-01-22T06:20:26.404Z,9.711669
2023-01-22T06:21:26.360Z,9.711652
2023-01-22T06:22:26.368Z,9.711655
2023-01-22T06:23:26.357Z,9.711591
2023-01-22T06:24:27.133Z,9.711617
2023-01-22T06:25:26.333Z,9.711597
2023-01-22T06:26:27.376Z,9.711625
2023-01-22T06:27:26.313Z,9.711539
2023-01-22T06:28:26.327Z,9.711612
2023-01-22T06:29:26.302Z,9.711632
2023-01-22T06:30:26.314Z,9.711701
2023-01-22T06:31:26.423Z,9.711696
2023-01-22T06:32:26.276Z,9.711737
2023-01-22T06:33:26.266Z,9.711701
2023-01-22T06:34:26.357Z,9.711683
2023-01-22T06:35:26.245Z,9.711723
2023-01-22T06:36:26.238Z,9.711711
2023-01-22T06:37:27.141Z,9.711705
2023-01-22T06:38:26.221Z,9.711702
2023-01-22T06:39:26.223Z,9.711716
2023-01-22T06:40:26.225Z,9.711728
2023-01-22T06:41:26.205Z,9.711746
2023-01-22T06:42:26.199Z,9.711710
2023-01-22T06:43:26.190Z,9.711732
2023-01-22T06:44:26.203Z,9.711725
2023-01-22T06:45:26.172Z,9.711693
2023-01-22T06:46:26.223Z,9.711710
2023-01-22T06:47:26.151Z,9.711710
2023-01-22T06:48:26.148Z,9.711720
2023-01-22T06:49:26.141Z,9.711784
2023-01-22T06:50:26.231Z,9.711742
2023-01-22T06:51:27.632Z,9.711654
2023-01-22T06:52:26.111Z,9.711575
2023-01-22T06:53:26.125Z,9.711642
2023-01-22T06:54:26.138Z,9.711630
2023-01-22T06:55:27.084Z,9.711705
2023-01-22T06:56:27.707Z,9.711732
2023-01-22T06:57:26.594Z,9.711687
2023-01-22T06:58:26.064Z,9.711595
2023-01-22T06:59:26.060Z,9.711664
2023-01-22T07:00:26.048Z,9.711697
2023-01-22T07:01:26.158Z,9.711731
2023-01-22T07:02:26.639Z,9.711832
2023-01-22T07:03:26.086Z,9.711794
2023-01-22T07:04:26.027Z,9.711754
2023-01-22T07:05:26.016Z,9.711843
2023-01-22T07:06:26.109Z,9.711757
2023-01-22T07:07:26.020Z,9.711717
2023-01-22T07:08:25.993Z,9.711818
2023-01-22T07:09:25.992Z,9.711857
2023-01-22T07:10:25.995Z,9.711811
2023-01-22T07:11:25.978Z,9.711854
2023-01-22T07:12:25.960Z,9.711817
2023-01-22T07:13:25.953Z,9.711856
2023-01-22T07:14:36.553Z,9.711872
2023-01-22T07:15:27.954Z,9.711788
2023-01-22T07:16:25.929Z,9.711740
2023-01-22T07:17:25.926Z,9.711772
2023-01-22T07:18:25.916Z,9.711790
2023-01-22T07:19:25.934Z,9.711815
2023-01-22T07:20:25.954Z,9.711738
2023-01-22T07:21:25.894Z,9.711857
2023-01-22T07:22:25.993Z,9.711900
2023-01-22T07:23:25.881Z,9.711855
2023-01-22T07:24:25.901Z,9.711823
2023-01-22T07:25:25.869Z,9.711934
2023-01-22T07:26:25.865Z,9.711778
2023-01-22T07:27:25.856Z,9.711828
2023-01-22T07:28:25.842Z,9.711868
2023-01-22T07:29:25.850Z,9.711881
2023-01-22T07:30:25.847Z,9.711894
2023-01-22T07:31:25.858Z,9.711789
2023-01-22T07:32:25.817Z,9.711998
2023-01-22T07:33:26.720Z,9.711870
2023-01-22T07:34:26.716Z,9.711586
2023-01-22T07:35:25.787Z,9.711533
2023-01-22T07:36:25.778Z,9.711498
2023-01-22T07:37:25.827Z,9.711824
2023-01-22T07:38:25.884Z,9.711782
2023-01-22T07:39:25.759Z,9.711604
2023-01-22T07:40:25.753Z,9.711696
2023-01-22T07:41:26.445Z,9.711656
2023-01-22T07:42:26.729Z,9.711679
2023-01-22T07:43:25.723Z,9.711689
2023-01-22T07:44:25.721Z,9.711699
2023-01-22T07:49:33.666Z,9.711707
2023-01-22T07:50:33.614Z,9.711593
2023-01-22T07:51:33.619Z,9.711637
2023-01-22T07:52:34.643Z,9.711676
2023-01-22T07:53:35.692Z,9.711653
2023-01-22T07:54:33.587Z,9.711785
2023-01-22T07:55:36.457Z,9.711849
2023-01-22T07:56:34.484Z,9.711658
2023-01-22T07:57:33.588Z,9.711649
2023-01-22T07:58:33.575Z,9.711677
2023-01-22T07:59:33.575Z,9.711632
2023-01-22T08:00:35.582Z,9.711648
2023-01-22T08:01:34.903Z,9.711629
2023-01-22T08:02:33.526Z,9.711643
2023-01-22T08:03:33.523Z,9.711635
2023-01-22T08:04:33.504Z,9.711652
2023-01-22T08:05:33.524Z,9.711634
2023-01-22T08:06:33.580Z,9.711620
2023-01-22T08:07:33.490Z,9.711599
2023-01-22T08:08:34.999Z,9.711674
2023-01-22T08:09:33.569Z,9.711618
2023-01-22T08:10:33.469Z,9.711616
2023-01-22T08:11:33.450Z,9.711640
2023-01-22T08:12:34.909Z,9.711624
2023-01-22T08:13:33.432Z,9.711759
2023-01-22T08:14:33.429Z,9.711676
2023-01-22T08:15:33.422Z,9.711655
2023-01-22T08:16:33.552Z,9.711700
2023-01-22T08:17:33.408Z,9.711732
2023-01-22T08:18:33.395Z,9.711758
2023-01-22T08:19:33.393Z,9.711783
2023-01-22T08:20:33.411Z,9.711680
2023-01-22T08:21:33.379Z,9.711727
2023-01-22T08:22:33.380Z,9.711691
2023-01-22T08:23:33.373Z,9.711696
2023-01-22T08:24:33.350Z,9.711511
2023-01-22T08:25:33.443Z,9.711585
2023-01-22T08:26:33.347Z,9.711628
2023-01-22T08:27:33.324Z,9.711602
2023-01-22T08:28:34.320Z,9.711690
2023-01-22T08:29:33.306Z,9.711746
2023-01-22T08:30:38.441Z,9.711567
2023-01-22T08:31:34.440Z,9.711889
2023-01-22T08:32:33.355Z,9.711649
2023-01-22T08:33:33.288Z,9.713041
2023-01-22T08:34:33.277Z,9.711823
2023-01-22T08:35:33.266Z,9.711931
2023-01-22T08:36:33.276Z,9.711844
2023-01-22T08:37:33.264Z,9.711844
2023-01-22T08:38:33.269Z,9.711713
2023-01-22T08:39:33.236Z,9.711647
2023-01-22T08:40:33.243Z,9.711714
2023-01-22T08:41:33.313Z,9.711714
2023-01-22T08:42:33.221Z,9.711670
2023-01-22T08:43:33.254Z,9.711668
2023-01-22T08:44:33.217Z,9.711687
2023-01-22T08:45:33.250Z,9.711723
2023-01-22T08:46:33.184Z,9.711676
2023-01-22T08:47:33.181Z,9.711623
2023-01-22T08:48:33.178Z,9.711657
2023-01-22T08:49:33.152Z,9.711623
2023-01-22T08:50:33.162Z,9.711653
2023-01-22T08:51:33.239Z,9.711673
2023-01-22T08:52:34.147Z,9.711658
2023-01-22T08:57:40.205Z,9.711629
2023-01-22T08:58:40.184Z,9.711568
2023-01-22T08:59:41.591Z,9.711535
2023-01-22T09:00:40.184Z,9.711533
2023-01-22T09:01:40.204Z,9.711551
2023-01-22T09:02:40.143Z,9.711582
2023-01-22T09:03:40.142Z,9.711577
2023-01-22T09:04:40.544Z,9.711596
2023-01-22T09:05:41.119Z,9.711606
2023-01-22T09:06:40.127Z,9.711637
2023-01-22T09:07:40.109Z,9.711678
2023-01-22T09:08:40.124Z,9.711728
2023-01-22T09:09:40.101Z,9.711751
2023-01-22T09:10:40.125Z,9.711740
2023-01-22T09:11:40.779Z,9.711744
2023-01-22T09:16:48.530Z,9.711628
2023-01-22T09:22:38.392Z,9.711861
2023-01-22T09:23:39.345Z,9.711793
2023-01-22T09:24:38.347Z,9.711746
2023-01-22T09:25:38.394Z,9.711644
2023-01-22T09:26:38.337Z,9.711679
2023-01-22T09:27:38.306Z,9.711656
2023-01-22T09:31:46.303Z,9.711678
2023-01-22T09:32:46.270Z,9.711754
2023-01-22T09:33:46.259Z,9.711782
2023-01-22T09:34:46.247Z,9.711723
2023-01-22T09:35:46.219Z,9.711792
2023-01-22T09:36:46.211Z,9.711811
2023-01-22T09:37:46.203Z,9.711751
2023-01-22T09:38:46.200Z,9.711704
2023-01-22T09:39:46.193Z,9.711877
2023-01-22T09:40:46.184Z,9.711787
2023-01-22T09:41:46.175Z,9.711751
2023-01-22T09:42:46.173Z,9.711784
2023-01-22T09:43:46.171Z,9.711754
2023-01-22T09:44:46.177Z,9.711741
2023-01-22T09:45:46.295Z,9.711794
2023-01-22T09:46:46.143Z,9.711713
2023-01-22T09:47:46.141Z,9.711829
2023-01-22T09:48:46.129Z,9.711625
2023-01-22T09:49:46.130Z,9.711810
2023-01-22T09:50:46.119Z,9.711808
2023-01-22T09:51:46.102Z,9.711721
2023-01-22T09:52:46.095Z,9.711934
2023-01-22T09:53:46.083Z,9.711982
2023-01-22T09:54:46.656Z,9.712038
2023-01-22T09:55:46.096Z,9.711776
2023-01-22T09:56:46.054Z,9.711703
2023-01-22T09:57:46.057Z,9.711725
2023-01-22T09:58:46.070Z,9.711557
2023-01-22T09:59:46.044Z,9.711673
2023-01-22T10:00:46.026Z,9.711910
2023-01-22T10:01:46.128Z,9.711958
2023-01-22T10:02:46.144Z,9.712059
2023-01-22T10:03:46.995Z,9.712008
2023-01-22T10:04:46.005Z,9.711942
2023-01-22T10:05:45.998Z,9.711882
2023-01-22T10:06:45.981Z,9.711560
2023-01-22T10:07:45.977Z,9.711871
2023-01-22T10:08:45.963Z,9.711832
2023-01-22T10:09:46.629Z,9.711664
2023-01-22T10:10:45.965Z,9.711862
2023-01-22T10:11:45.965Z,9.711798
2023-01-22T10:12:45.929Z,9.711740
2023-01-22T10:13:45.925Z,9.711881
2023-01-22T10:14:45.917Z,9.711737
2023-01-22T10:15:45.915Z,9.711737
2023-01-22T10:16:47.644Z,9.711672
2023-01-22T10:17:45.993Z,9.711702
2023-01-22T10:18:45.899Z,9.711635
2023-01-22T10:19:45.889Z,9.711659
2023-01-22T10:20:45.884Z,9.711622
2023-01-22T10:21:45.869Z,9.711663
2023-01-22T10:22:45.871Z,9.711708
2023-01-22T10:23:45.855Z,9.711598
2023-01-22T10:24:45.841Z,9.711580
2023-01-22T10:25:45.862Z,9.711541
2023-01-22T10:26:45.835Z,9.711592
2023-01-22T10:27:45.826Z,9.711622
2023-01-22T10:28:46.640Z,9.711612
2023-01-22T10:29:45.803Z,9.711566
2023-01-22T10:30:45.932Z,9.711639
2023-01-22T10:31:45.979Z,9.711620
2023-01-22T10:32:45.780Z,9.711615
2023-01-22T10:33:45.878Z,9.711600
2023-01-22T10:38:34.282Z,9.711448
2023-01-22T10:39:34.315Z,9.711481
2023-01-22T10:40:34.264Z,9.711549
2023-01-22T10:41:34.284Z,9.711555
2023-01-22T10:42:34.234Z,9.711609
2023-01-22T10:43:34.224Z,9.711615
2023-01-22T10:44:34.232Z,9.711591
2023-01-22T10:45:34.222Z,9.711669
2023-01-22T10:46:34.209Z,9.711620
2023-01-22T10:47:34.197Z,9.711650
2023-01-22T10:48:34.257Z,9.711570
2023-01-22T10:49:34.281Z,9.711637
2023-01-22T10:50:34.217Z,9.711664
2023-01-22T10:51:34.179Z,9.711635
2023-01-22T10:52:34.160Z,9.711576
2023-01-22T10:53:34.166Z,9.711598
2023-01-22T10:54:34.126Z,9.711674
2023-01-22T10:55:35.155Z,9.711554
2023-01-22T10:56:34.121Z,9.711603
2023-01-22T10:57:34.133Z,9.711520
2023-01-22T10:58:34.124Z,9.711601
2023-01-22T10:59:34.106Z,9.711665
2023-01-22T11:00:46.694Z,9.711651
2023-01-22T11:01:36.667Z,9.711617
2023-01-22T11:02:34.118Z,9.711650
2023-01-22T11:03:34.068Z,9.711628
2023-01-22T11:04:34.106Z,9.711667
2023-01-22T11:05:34.661Z,9.711688
2023-01-22T11:06:34.051Z,9.711658
2023-01-22T11:07:34.032Z,9.711717
2023-01-22T11:08:34.023Z,9.711742
2023-01-22T11:09:34.031Z,9.711763
2023-01-22T11:10:34.028Z,9.711646
2023-01-22T11:11:34.012Z,9.711552
2023-01-22T11:12:35.012Z,9.711556
2023-01-22T11:13:33.994Z,9.711496
2023-01-22T11:14:34.008Z,9.711424
2023-01-22T11:15:34.028Z,9.711792
2023-01-22T11:16:33.973Z,9.711662
2023-01-22T11:17:33.980Z,9.711767
2023-01-22T11:18:33.956Z,9.711801
2023-01-22T11:19:37.610Z,9.711779
2023-01-22T11:20:34.945Z,9.711776
2023-01-22T11:21:34.040Z,9.711815
2023-01-22T11:22:33.919Z,9.711729
2023-01-22T11:23:33.916Z,9.711683
2023-01-22T11:24:34.516Z,9.711742
2023-01-22T11:25:33.890Z,9.711699
2023-01-22T11:26:33.957Z,9.711709
2023-01-22T11:27:33.869Z,9.711673
2023-01-22T11:28:33.866Z,9.711713
2023-01-22T11:29:33.862Z,9.711749
2023-01-22T11:30:33.883Z,9.711761
2023-01-22T11:31:33.989Z,9.711848
2023-01-22T11:32:33.849Z,9.711760
2023-01-22T11:33:33.828Z,9.711755
2023-01-22T11:34:33.824Z,9.711778
2023-01-22T11:35:33.838Z,9.711756
2023-01-22T11:36:34.641Z,9.711802
2023-01-22T11:37:33.889Z,9.711722
2023-01-22T11:38:33.782Z,9.711690
2023-01-22T11:39:34.573Z,9.711658
2023-01-22T11:40:33.767Z,9.711679
2023-01-22T11:41:33.770Z,9.711684
2023-01-22T11:42:33.747Z,9.711661
2023-01-22T11:43:34.755Z,9.711699
2023-01-22T11:44:33.749Z,9.711674
2023-01-22T11:45:33.737Z,9.711652
2023-01-22T11:46:33.760Z,9.711653
2023-01-22T11:47:33.704Z,9.711660
2023-01-22T11:48:33.710Z,9.711647
2023-01-22T11:49:33.689Z,9.711626
2023-01-22T11:50:34.680Z,9.711610
2023-01-22T11:51:33.715Z,9.711620
2023-01-22T11:52:33.668Z,9.711607
2023-01-22T11:53:33.773Z,9.711663
2023-01-22T11:54:33.664Z,9.711688
2023-01-22T11:55:33.644Z,9.711690
2023-01-22T11:56:33.629Z,9.711809
2023-01-22T11:57:33.669Z,9.711761
2023-01-22T11:58:33.629Z,9.711778
2023-01-22T11:59:33.623Z,9.711874
2023-01-22T12:00:33.606Z,9.711827
2023-01-22T12:01:33.616Z,9.711783
2023-01-22T12:02:33.619Z,9.711714
2023-01-22T12:03:33.598Z,9.711764
2023-01-22T12:04:34.146Z,9.711717
2023-01-22T12:05:33.568Z,9.711635
2023-01-22T12:06:33.601Z,9.711694
2023-01-22T12:07:34.155Z,9.711512
2023-01-22T12:08:33.544Z,9.711741
2023-01-22T12:09:33.641Z,9.711791
2023-01-22T12:10:33.531Z,9.711693
2023-01-22T12:11:33.524Z,9.711764
2023-01-22T12:12:33.510Z,9.712132
2023-01-22T12:13:33.502Z,9.711837
2023-01-22T12:14:34.081Z,9.711882
2023-01-22T12:15:34.065Z,9.711798
2023-01-22T12:16:33.486Z,9.711680
2023-01-22T12:17:33.479Z,9.711882
2023-01-22T12:18:35.152Z,9.711740
2023-01-22T12:19:33.456Z,9.712167